Time;durP1;ratioP1;P1;durP2;ratioP2;P2;SDS_P1;SDS_P2;PMS_P1;PMS_P2;Temp;Humidity;BMP_temperature;BMP_pressure;BME280_temperature;BME280_humidity;BME280_pressure;Samples;Min_cycle;Max_cycle;Signal;HPM_P1;HPM_P2
2022/01/10 00:03:35;;;;;;;9.75;7.75;;;4.00;99.90;;;;;;1953528;72;22119;-90
2022/01/10 00:06:27;;;;;;;10.08;8.55;;;4.00;99.90;;;;;;1917211;73;21142;-89
2022/01/10 00:11:57;;;;;;;11.48;9.63;;;4.00;99.90;;;;;;1946113;72;22173;-89
2022/01/10 00:14:48;;;;;;;12.53;9.33;;;4.10;99.90;;;;;;1895541;75;21563;-88
2022/01/10 00:20:27;;;;;;;9.43;7.55;;;4.10;99.90;;;;;;1957661;72;22120;-90
2022/01/10 00:23:18;;;;;;;10.20;7.15;;;4.20;99.90;;;;;;1944532;73;21043;-89
2022/01/10 00:26:10;;;;;;;8.70;7.12;;;4.20;99.90;;;;;;1919923;73;21129;-89
2022/01/10 00:29:01;;;;;;;8.30;6.12;;;4.10;99.90;;;;;;1928328;73;21143;-89
2022/01/10 00:32:11;;;;;;;6.95;5.80;;;4.10;99.90;;;;;;1917858;73;21120;-90
2022/01/10 00:37:43;;;;;;;8.05;5.17;;;4.10;99.90;;;;;;1952604;72;22353;-90
2022/01/10 00:43:18;;;;;;;6.30;5.67;;;4.20;99.90;;;;;;1948937;72;22122;-90
2022/01/10 00:46:07;;;;;;;7.70;6.60;;;4.20;99.90;;;;;;1895474;75;21108;-89
2022/01/10 00:48:59;;;;;;;8.20;6.97;;;4.20;99.90;;;;;;1907687;75;21244;-89
2022/01/10 00:51:51;;;;;;;7.78;6.92;;;4.20;99.90;;;;;;1884734;76;21072;-89
2022/01/10 00:55:02;;;;;;;8.60;7.58;;;4.20;99.90;;;;;;1889055;75;21061;-90
2022/01/10 01:00:33;;;;;;;9.68;8.00;;;4.20;99.90;;;;;;1921727;72;22184;-89
2022/01/10 01:03:24;;;;;;;9.33;8.33;;;4.20;99.90;;;;;;1898673;75;21070;-89
2022/01/10 01:06:16;;;;;;;10.08;8.20;;;4.20;99.90;;;;;;1905596;73;21119;-89
2022/01/10 01:09:11;;;;;;;9.78;8.05;;;4.10;99.90;;;;;;1900377;75;21108;-89
2022/01/10 01:12:32;;;;;;;11.00;9.03;;;4.10;99.90;;;;;;1887538;75;21054;-89
2022/01/10 01:15:23;;;;;;;9.93;8.30;;;4.20;99.90;;;;;;1883813;75;21059;-88
2022/01/10 01:18:19;;;;;;;9.53;8.00;;;4.20;99.90;;;;;;1897425;75;21138;-88
2022/01/10 01:24:19;;;;;;;10.18;9.00;;;4.10;99.90;;;;;;1916951;75;21057;-89
2022/01/10 01:27:11;;;;;;;11.12;9.13;;;4.10;99.90;;;;;;1908869;74;21063;-88
2022/01/10 01:30:02;;;;;;;9.98;8.20;;;4.00;99.90;;;;;;1900535;75;21139;-89
2022/01/10 01:35:40;;;;;;;14.03;12.20;;;4.10;99.90;;;;;;1924596;72;28005;-89
2022/01/10 01:41:25;;;;;;;11.50;9.85;;;4.20;99.90;;;;;;1943000;72;22123;-90
2022/01/10 01:44:14;;;;;;;12.75;9.95;;;4.10;99.90;;;;;;1905731;74;21063;-89
2022/01/10 01:47:06;;;;;;;11.30;9.83;;;4.10;99.90;;;;;;1905625;74;21220;-89
2022/01/10 01:49:59;;;;;;;14.55;10.70;;;4.10;99.90;;;;;;1914481;74;21060;-89
2022/01/10 01:53:10;;;;;;;12.68;10.72;;;4.10;99.90;;;;;;1912835;74;21055;-90
2022/01/10 02:01:28;;;;;;;10.93;9.55;;;4.10;99.90;;;;;;1938268;72;22259;-89
2022/01/10 02:04:20;;;;;;;12.58;9.98;;;4.10;99.90;;;;;;1902705;75;21573;-89
2022/01/10 02:07:14;;;;;;;13.68;10.03;;;4.10;99.90;;;;;;1884634;76;21156;-89
2022/01/10 02:10:08;;;;;;;12.03;10.00;;;4.10;99.90;;;;;;1916427;75;21189;-89
2022/01/10 02:13:18;;;;;;;13.48;10.32;;;4.10;99.90;;;;;;1892692;75;21058;-90
2022/01/10 02:16:17;;;;;;;12.82;10.28;;;4.10;99.90;;;;;;1912774;74;21525;-90
2022/01/10 02:21:46;;;;;;;14.05;10.40;;;4.20;99.90;;;;;;1944258;72;22154;-89
2022/01/10 02:27:20;;;;;;;14.15;11.12;;;4.10;99.90;;;;;;1942647;72;22220;-90
2022/01/10 02:30:12;;;;;;;12.55;10.70;;;4.10;99.90;;;;;;1884811;75;21143;-88
2022/01/10 02:33:05;;;;;;;13.03;10.55;;;4.10;99.90;;;;;;1894910;75;21206;-88
2022/01/10 02:36:08;;;;;;;13.08;10.90;;;4.20;99.90;;;;;;1898833;75;21140;-88
2022/01/10 02:41:53;;;;;;;16.90;13.00;;;4.20;99.90;;;;;;1957013;72;22131;-89
2022/01/10 02:44:45;;;;;;;18.12;13.40;;;4.20;99.90;;;;;;1928822;73;21047;-89
2022/01/10 02:47:40;;;;;;;17.00;12.78;;;4.20;99.90;;;;;;1922091;73;21070;-89
2022/01/10 02:50:31;;;;;;;18.57;13.25;;;4.20;99.90;;;;;;1920831;73;21195;-89
2022/01/10 02:53:41;;;;;;;17.17;12.98;;;4.20;99.90;;;;;;1936276;73;21055;-88
2022/01/10 02:56:33;;;;;;;15.45;11.78;;;4.20;99.90;;;;;;1921451;73;21045;-89
2022/01/10 02:59:26;;;;;;;14.33;11.40;;;4.20;99.90;;;;;;1948326;73;21102;-88
2022/01/10 03:02:22;;;;;;;14.18;10.70;;;4.10;99.90;;;;;;1940081;73;21056;-88
2022/01/10 03:05:17;;;;;;;14.13;11.05;;;4.10;99.90;;;;;;1929969;73;21110;-89
2022/01/10 03:08:10;;;;;;;14.30;10.63;;;4.10;99.90;;;;;;1923107;73;21083;-89
2022/01/10 03:11:02;;;;;;;12.98;10.38;;;4.10;99.90;;;;;;1927598;74;21056;-89
2022/01/10 03:13:53;;;;;;;15.48;11.08;;;4.10;99.90;;;;;;1925771;73;21043;-88
2022/01/10 03:16:46;;;;;;;14.03;10.68;;;4.10;99.90;;;;;;1920228;73;21156;-89
2022/01/10 03:22:19;;;;;;;16.20;11.05;;;4.10;99.90;;;;;;1948629;72;22207;-90
2022/01/10 03:27:55;;;;;;;13.58;10.18;;;4.10;99.90;;;;;;1968071;72;22141;-90
2022/01/10 03:30:47;;;;;;;14.68;11.12;;;4.10;99.90;;;;;;1929858;73;21129;-89
2022/01/10 03:33:40;;;;;;;15.68;12.03;;;4.10;99.90;;;;;;1921016;73;21119;-90
2022/01/10 03:36:32;;;;;;;17.95;12.65;;;4.10;99.90;;;;;;1918786;73;21102;-91
2022/01/10 03:42:21;;;;;;;16.42;12.78;;;4.10;99.90;;;;;;1958231;72;22171;-90
2022/01/10 03:45:14;;;;;;;16.73;12.80;;;4.10;99.90;;;;;;1888960;75;21109;-90
2022/01/10 03:50:45;;;;;;;15.75;12.68;;;4.10;99.90;;;;;;1935775;72;22155;-89
2022/01/10 03:53:37;;;;;;;15.83;12.27;;;4.10;99.90;;;;;;1904062;75;21143;-90
2022/01/10 03:56:31;;;;;;;16.52;13.15;;;4.00;99.90;;;;;;1902943;75;21129;-89
2022/01/10 03:59:24;;;;;;;17.00;12.88;;;4.00;99.90;;;;;;1884889;75;21058;-90
2022/01/10 04:02:35;;;;;;;16.90;12.88;;;4.00;99.90;;;;;;1885323;75;21067;-89
2022/01/10 04:05:29;;;;;;;15.08;11.95;;;4.00;99.90;;;;;;1899336;75;21106;-90
2022/01/10 04:08:21;;;;;;;14.23;11.55;;;4.00;99.90;;;;;;1906432;75;21136;-89
2022/01/10 04:11:13;;;;;;;16.82;12.00;;;3.90;99.90;;;;;;1903549;75;21115;-89
2022/01/10 04:14:05;;;;;;;14.50;12.15;;;3.80;99.90;;;;;;1911046;75;21147;-90
2022/01/10 04:16:57;;;;;;;14.87;11.63;;;3.90;99.90;;;;;;1903450;75;21147;-89
2022/01/10 04:19:49;;;;;;;15.72;11.97;;;3.90;99.90;;;;;;1906046;75;21112;-90
2022/01/10 04:25:19;;;;;;;16.73;13.32;;;3.90;99.90;;;;;;1946680;72;22185;-89
2022/01/10 04:28:11;;;;;;;16.27;12.60;;;3.90;99.90;;;;;;1894166;75;21122;-89
2022/01/10 04:31:04;;;;;;;17.07;13.28;;;3.90;99.90;;;;;;1907670;75;21091;-89
2022/01/10 04:33:56;;;;;;;14.60;12.03;;;3.90;99.90;;;;;;1899558;75;21054;-88
2022/01/10 04:39:51;;;;;;;18.52;16.17;;;3.90;99.90;;;;;;1920895;72;27954;-90
2022/01/10 04:42:43;;;;;;;16.02;12.78;;;4.10;99.90;;;;;;1924441;74;21120;-90
2022/01/10 04:45:35;;;;;;;16.73;12.47;;;4.10;99.90;;;;;;1922500;73;21051;-89
2022/01/10 04:48:26;;;;;;;14.93;12.00;;;4.00;99.90;;;;;;1898350;75;21106;-89
2022/01/10 04:51:38;;;;;;;14.18;11.57;;;4.00;99.90;;;;;;1900292;75;21135;-88
2022/01/10 04:54:29;;;;;;;12.23;9.60;;;3.90;99.90;;;;;;1897771;75;21118;-89
2022/01/10 04:57:20;;;;;;;11.88;9.70;;;3.90;99.90;;;;;;1909932;73;21181;-89
2022/01/10 05:00:15;;;;;;;12.18;9.73;;;4.00;99.90;;;;;;1909099;75;21042;-89
2022/01/10 05:05:48;;;;;;;12.95;10.78;;;4.00;99.90;;;;;;1942823;72;22304;-90
2022/01/10 05:08:39;;;;;;;15.55;11.53;;;4.00;99.90;;;;;;1910335;74;21181;-89
2022/01/10 05:11:35;;;;;;;13.93;10.80;;;4.00;99.90;;;;;;1914552;75;21128;-89
2022/01/10 05:14:27;;;;;;;13.28;10.72;;;4.00;99.90;;;;;;1906517;75;21047;-88
2022/01/10 05:17:37;;;;;;;13.05;10.43;;;3.90;99.90;;;;;;1888476;75;21059;-88
2022/01/10 05:20:30;;;;;;;13.80;10.88;;;3.90;99.90;;;;;;1898614;75;21579;-88
2022/01/10 05:26:07;;;;;;;14.68;11.53;;;3.80;99.90;;;;;;1950623;72;20121;-90
2022/01/10 05:29:01;;;;;;;15.10;12.00;;;3.80;99.90;;;;;;1940394;73;21161;-90
2022/01/10 05:31:52;;;;;;;16.23;13.20;;;3.80;99.90;;;;;;1952665;73;21054;-90
2022/01/10 05:34:59;;;;;;;;;;;3.80;99.90;;;;;;1947307;73;21192;-90
2022/01/10 05:37:52;;;;;;;14.87;11.57;;;3.90;99.90;;;;;;1943122;73;20177;-91
2022/01/10 05:40:44;;;;;;;15.68;12.23;;;3.80;99.90;;;;;;1926226;73;21043;-90
2022/01/10 05:46:27;;;;;;;14.28;11.08;;;3.80;99.90;;;;;;1976875;72;22143;-90
2022/01/10 05:51:59;;;;;;;14.40;10.78;;;3.60;99.90;;;;;;1938414;72;22199;-90
2022/01/10 05:54:54;;;;;;;13.90;11.10;;;3.80;99.90;;;;;;1913610;75;21039;-90
2022/01/10 06:00:26;;;;;;;14.40;11.48;;;3.70;99.90;;;;;;1932516;72;22299;-90
2022/01/10 06:03:18;;;;;;;16.05;11.53;;;3.70;99.90;;;;;;1916418;75;21102;-89
2022/01/10 06:09:01;;;;;;;16.02;11.83;;;3.70;99.90;;;;;;1947047;72;22130;-91
2022/01/10 06:11:57;;;;;;;16.12;11.85;;;3.70;99.90;;;;;;1895272;75;21062;-90
2022/01/10 06:14:48;;;;;;;16.50;12.53;;;3.60;99.90;;;;;;1893176;75;21102;-89
2022/01/10 06:17:42;;;;;;;16.12;12.25;;;3.70;99.90;;;;;;1916351;75;21155;-90
2022/01/10 06:20:51;;;;;;;15.83;11.97;;;3.70;99.90;;;;;;1901913;75;21103;-89
2022/01/10 06:26:22;;;;;;;11.43;8.83;;;3.80;99.90;;;;;;1947249;72;22543;-89
2022/01/10 06:29:15;;;;;;;9.83;7.53;;;3.80;99.90;;;;;;1933341;73;21090;-90
2022/01/10 06:32:07;;;;;;;7.53;6.50;;;3.80;99.90;;;;;;1915995;73;21098;-89
2022/01/10 06:34:58;;;;;;;8.08;6.30;;;3.80;99.90;;;;;;1916065;75;21145;-92
2022/01/10 06:37:49;;;;;;;8.48;6.17;;;3.80;99.90;;;;;;1938720;73;21052;-90
2022/01/10 06:40:40;;;;;;;7.65;5.85;;;3.80;99.90;;;;;;1918970;73;21145;-89
2022/01/10 06:43:31;;;;;;;8.63;7.05;;;3.80;99.90;;;;;;1935644;73;21125;-91
2022/01/10 06:46:23;;;;;;;7.97;6.00;;;3.90;99.90;;;;;;1916897;74;21143;-89
2022/01/10 06:52:01;;;;;;;7.35;5.80;;;4.00;99.90;;;;;;1944729;72;22163;-89
2022/01/10 06:54:53;;;;;;;7.30;5.65;;;4.00;99.90;;;;;;1891042;75;21105;-81
2022/01/10 06:57:45;;;;;;;8.03;6.08;;;3.90;99.90;;;;;;1897078;75;21038;-83
2022/01/10 07:03:19;;;;;;;7.78;6.03;;;4.00;99.90;;;;;;1956564;72;22226;-86
2022/01/10 07:06:18;;;;;;;7.17;5.97;;;4.00;99.90;;;;;;1890722;75;21162;-86
2022/01/10 07:09:09;;;;;;;7.70;5.67;;;4.00;99.90;;;;;;1892418;75;21176;-86
2022/01/10 07:12:02;;;;;;;6.87;5.53;;;4.00;99.90;;;;;;1902543;74;21214;-86
2022/01/10 07:14:54;;;;;;;7.00;5.67;;;4.00;99.90;;;;;;1904355;75;21192;-85
2022/01/10 07:17:45;;;;;;;7.30;6.22;;;4.00;99.90;;;;;;1892455;75;21067;-84
2022/01/10 07:20:38;;;;;;;8.00;6.67;;;4.00;99.90;;;;;;1893487;73;21183;-85
2022/01/10 07:23:30;;;;;;;9.23;6.78;;;4.00;99.90;;;;;;1886314;75;21110;-87
2022/01/10 07:26:22;;;;;;;9.85;7.33;;;4.00;99.90;;;;;;1884089;74;21073;-87
2022/01/10 07:29:14;;;;;;;11.08;8.10;;;3.90;99.90;;;;;;1895435;74;21078;-86
2022/01/10 07:32:06;;;;;;;10.20;8.48;;;3.90;99.90;;;;;;1896017;74;21110;-86
2022/01/10 07:34:57;;;;;;;11.43;7.85;;;4.00;99.90;;;;;;1892567;73;21159;-86
2022/01/10 07:37:49;;;;;;;12.45;7.78;;;3.90;99.90;;;;;;1884656;74;21165;-86
2022/01/10 07:40:40;;;;;;;9.90;7.95;;;4.00;99.90;;;;;;1911026;75;21086;-87
2022/01/10 07:46:11;;;;;;;10.05;7.60;;;3.90;99.90;;;;;;1946027;72;22121;-90
2022/01/10 07:49:02;;;;;;;10.50;8.45;;;4.00;99.90;;;;;;1928452;74;21144;-88
2022/01/10 07:51:57;;;;;;;9.20;7.35;;;3.90;99.90;;;;;;1896946;74;21127;-89
2022/01/10 07:54:45;;;;;;;10.23;7.55;;;3.90;99.90;;;;;;1903157;74;21098;-89
2022/01/10 07:57:36;;;;;;;9.90;7.78;;;3.90;99.90;;;;;;1918396;73;21055;-89
2022/01/10 08:03:08;;;;;;;10.15;8.13;;;3.90;99.90;;;;;;1955978;72;22218;-89
2022/01/10 08:05:59;;;;;;;8.80;7.55;;;3.90;99.90;;;;;;1917531;73;21105;-89
2022/01/10 08:38:42;;;;;;;9.75;6.92;;;4.30;99.90;;;;;;1993735;71;22201;-85
2022/01/10 08:41:34;;;;;;;8.83;6.65;;;4.50;99.90;;;;;;1953280;73;21075;-89
2022/01/10 08:44:26;;;;;;;7.62;5.12;;;4.50;99.90;;;;;;2033456;70;21060;-88
2022/01/10 08:47:18;;;;;;;6.70;5.37;;;4.60;99.90;;;;;;2033042;70;21051;-90
2022/01/10 08:50:12;;;;;;;8.75;5.90;;;4.70;99.90;;;;;;2046394;69;21136;-90
2022/01/10 08:53:04;;;;;;;6.30;4.97;;;4.80;99.90;;;;;;2050878;69;21035;-89
2022/01/10 08:58:40;;;;;;;9.73;7.25;;;4.90;99.90;;;;;;1940895;72;28366;-89
2022/01/10 09:01:32;;;;;;;6.08;5.03;;;5.10;99.90;;;;;;1917485;75;21373;-89
2022/01/10 09:04:24;;;;;;;6.12;4.83;;;5.10;99.90;;;;;;1915709;75;21106;-89
2022/01/10 09:07:16;;;;;;;6.58;4.92;;;5.10;99.90;;;;;;1885536;75;21055;-89
2022/01/10 09:10:09;;;;;;;5.70;4.67;;;5.20;99.90;;;;;;1915862;75;21095;-89
2022/01/10 09:15:41;;;;;;;7.90;5.75;;;5.30;99.90;;;;;;1955307;72;22123;-89
2022/01/10 09:21:16;;;;;;;6.85;5.53;;;5.20;99.90;;;;;;1937479;72;22119;-88
2022/01/10 09:26:53;;;;;;;8.23;5.90;;;5.40;99.90;;;;;;1975872;72;22131;-88
2022/01/10 09:32:24;;;;;;;6.33;5.35;;;5.50;99.90;;;;;;1935177;72;22143;-89
2022/01/10 09:35:16;;;;;;;8.20;5.95;;;5.60;99.90;;;;;;1889927;75;21502;-89
2022/01/10 09:40:48;;;;;;;3.30;2.50;;;5.70;99.90;;;;;;1954235;72;22120;-88
2022/01/10 09:46:58;;;;;;;5.28;3.90;;;5.80;99.90;;;;;;1991460;71;22104;-89
2022/01/10 09:49:52;;;;;;;4.47;3.30;;;5.80;99.90;;;;;;1953288;73;21088;-89
2022/01/10 09:52:46;;;;;;;3.52;2.72;;;5.90;99.90;;;;;;2032299;70;21089;-89
2022/01/10 09:55:37;;;;;;;5.40;3.20;;;6.00;99.90;;;;;;2032269;70;21063;-88
2022/01/10 09:58:29;;;;;;;4.25;2.98;;;5.90;99.90;;;;;;2052045;69;21113;-88
2022/01/10 10:01:21;;;;;;;4.47;2.98;;;6.00;99.90;;;;;;2049723;69;21027;-89
2022/01/10 10:04:14;;;;;;;4.03;3.00;;;6.10;99.90;;;;;;2033492;70;21123;-88
2022/01/10 10:07:06;;;;;;;2.98;2.52;;;6.10;99.90;;;;;;2033223;70;21023;-89
2022/01/10 10:10:00;;;;;;;2.50;2.05;;;6.10;99.90;;;;;;2035366;69;21090;-88
2022/01/10 10:12:53;;;;;;;2.10;1.57;;;6.20;99.90;;;;;;2047112;69;21603;-88
2022/01/10 10:15:45;;;;;;;2.90;1.80;;;6.20;99.90;;;;;;2033775;70;21167;-88
2022/01/10 10:21:17;;;;;;;2.12;1.80;;;6.00;99.90;;;;;;1958522;72;22154;-89
2022/01/10 10:24:08;;;;;;;2.87;1.50;;;5.90;99.90;;;;;;1917606;75;21112;-89
2022/01/10 10:27:00;;;;;;;2.65;1.62;;;6.00;99.90;;;;;;1905051;75;21050;-88
2022/01/10 10:29:52;;;;;;;2.92;2.30;;;6.00;99.90;;;;;;1877187;76;21113;-87
2022/01/10 10:32:44;;;;;;;3.08;2.35;;;6.00;99.90;;;;;;1917438;75;21159;-88
2022/01/10 10:38:17;;;;;;;5.58;4.55;;;6.30;99.90;;;;;;1955622;72;22245;-89
2022/01/10 10:41:08;;;;;;;7.10;5.08;;;6.30;99.90;;;;;;1896464;74;21111;-88
2022/01/10 10:47:12;;;;;;;7.87;5.62;;;6.50;99.90;;;;;;2018374;69;22692;-89
2022/01/10 10:50:05;;;;;;;6.75;5.37;;;6.60;99.90;;;;;;1964037;72;21179;-88
2022/01/10 10:52:57;;;;;;;6.90;5.35;;;6.60;99.90;;;;;;1964689;72;21121;-88
2022/01/10 10:55:49;;;;;;;7.62;6.17;;;6.60;99.90;;;;;;1973670;72;21040;-88
2022/01/10 10:58:41;;;;;;;7.15;5.05;;;6.60;99.90;;;;;;1953451;72;21120;-89
2022/01/10 11:01:36;;;;;;;4.53;3.27;;;6.40;99.90;;;;;;1961221;72;21037;-88
2022/01/10 11:04:28;;;;;;;5.30;3.55;;;6.50;99.90;;;;;;1949715;73;21048;-88
2022/01/10 11:07:23;;;;;;;4.80;3.27;;;6.40;99.90;;;;;;1961336;72;21100;-89
2022/01/10 11:10:20;;;;;;;4.20;3.57;;;6.40;99.90;;;;;;1975560;72;21120;-88
2022/01/10 11:13:13;;;;;;;3.72;2.62;;;6.50;99.90;;;;;;1948515;73;21390;-87
2022/01/10 11:16:05;;;;;;;4.47;2.10;;;6.30;99.90;;;;;;1948737;73;21579;-89
2022/01/10 11:18:57;;;;;;;2.87;1.90;;;6.30;99.90;;;;;;1964762;72;21181;-89
2022/01/10 11:21:54;;;;;;;4.08;1.95;;;6.30;99.90;;;;;;1972552;72;21048;-89
2022/01/10 11:24:51;;;;;;;2.87;2.12;;;6.10;99.90;;;;;;1955552;72;21153;-88
2022/01/10 11:27:45;;;;;;;3.25;2.50;;;6.10;99.90;;;;;;1983809;72;21060;-88
2022/01/10 11:30:38;;;;;;;3.22;2.70;;;6.20;99.90;;;;;;1963006;72;21116;-89
2022/01/10 11:33:32;;;;;;;3.08;1.87;;;6.20;99.90;;;;;;1964751;72;21067;-88
2022/01/10 11:36:26;;;;;;;2.50;1.80;;;6.30;99.90;;;;;;1983930;72;21113;-89
2022/01/10 11:39:18;;;;;;;3.37;2.47;;;6.30;99.90;;;;;;1960120;72;21077;-88
2022/01/10 11:42:23;;;;;;;1.65;1.40;;;6.40;99.90;;;;;;1983707;72;21093;-89
2022/01/10 11:45:16;;;;;;;2.92;1.60;;;6.50;99.90;;;;;;1962088;72;21486;-88
2022/01/10 11:48:17;;;;;;;2.37;1.87;;;6.60;99.90;;;;;;1971468;72;21646;-87
2022/01/10 11:51:16;;;;;;;3.45;1.80;;;6.60;99.90;;;;;;1961507;72;21067;-87
2022/01/10 11:54:13;;;;;;;2.33;1.50;;;6.40;99.90;;;;;;1983767;72;21024;-88
2022/01/10 11:57:06;;;;;;;1.87;1.50;;;6.20;99.90;;;;;;1983306;72;21068;-87
2022/01/10 12:00:02;;;;;;;3.02;1.52;;;6.20;99.90;;;;;;1982858;72;21495;-87
2022/01/10 12:02:56;;;;;;;1.92;1.27;;;6.20;99.90;;;;;;1982910;72;21040;-88
2022/01/10 12:05:49;;;;;;;2.58;1.25;;;6.20;99.90;;;;;;1961888;72;21146;-88
2022/01/10 12:08:41;;;;;;;2.20;1.30;;;6.20;99.90;;;;;;1974358;72;21112;-88
2022/01/10 12:11:33;;;;;;;2.10;1.52;;;6.10;99.90;;;;;;1974509;72;21044;-88
2022/01/10 12:14:26;;;;;;;2.17;1.25;;;6.20;99.90;;;;;;1961726;72;21083;-87
2022/01/10 12:17:18;;;;;;;1.15;0.88;;;6.30;99.90;;;;;;1948304;74;21164;-89
2022/01/10 12:20:11;;;;;;;2.02;1.10;;;6.40;99.90;;;;;;1948164;74;21113;-88
2022/01/10 12:23:03;;;;;;;1.70;0.82;;;6.40;99.90;;;;;;1971211;72;21036;-88
2022/01/10 12:25:54;;;;;;;2.80;1.20;;;6.40;99.90;;;;;;1971048;72;21091;-89
2022/01/10 12:28:48;;;;;;;2.02;1.10;;;6.50;99.90;;;;;;1948449;74;21152;-89
2022/01/10 12:31:42;;;;;;;1.45;1.00;;;6.50;99.90;;;;;;1946052;74;21400;-88
2022/01/10 12:34:33;;;;;;;1.62;0.95;;;6.60;99.90;;;;;;1945969;74;21110;-89
2022/01/10 12:37:26;;;;;;;3.05;1.30;;;6.60;99.90;;;;;;1948104;72;21039;-88
2022/01/10 12:40:17;;;;;;;2.65;1.20;;;6.50;99.90;;;;;;1963209;72;21137;-88
2022/01/10 12:43:12;;;;;;;1.90;1.20;;;6.50;99.90;;;;;;1948188;73;21046;-88
2022/01/10 12:46:05;;;;;;;1.72;1.32;;;6.50;99.90;;;;;;1971373;72;21042;-89
2022/01/10 12:49:03;;;;;;;2.25;1.30;;;6.50;99.90;;;;;;1952797;72;21059;-87
2022/01/10 12:51:57;;;;;;;2.12;1.02;;;6.60;99.90;;;;;;1982419;72;21083;-88
2022/01/10 12:54:52;;;;;;;1.75;1.10;;;6.70;99.90;;;;;;1967644;72;21192;-88
2022/01/10 12:57:43;;;;;;;2.25;1.10;;;6.80;99.90;;;;;;1968990;72;21105;-87
2022/01/10 13:00:35;;;;;;;2.72;1.12;;;6.80;99.90;;;;;;1948321;74;21028;-88
2022/01/10 13:03:29;;;;;;;2.05;1.00;;;6.80;99.90;;;;;;1974552;72;21101;-89
2022/01/10 13:06:22;;;;;;;1.50;1.00;;;6.90;99.90;;;;;;1982678;72;21076;-87
2022/01/10 13:09:14;;;;;;;1.77;0.90;;;6.90;99.90;;;;;;1982931;72;21093;-89
2022/01/10 13:12:23;;;;;;;1.95;0.93;;;7.00;99.90;;;;;;1983327;72;21155;-89
2022/01/10 13:15:12;;;;;;;1.55;1.00;;;7.00;99.90;;;;;;1951505;72;21161;-88
2022/01/10 13:18:04;;;;;;;2.98;1.10;;;7.10;99.90;;;;;;1971147;72;21068;-88
2022/01/10 13:20:57;;;;;;;2.62;0.70;;;7.00;99.90;;;;;;1947938;72;21107;-88
2022/01/10 13:23:51;;;;;;;2.37;1.10;;;7.00;99.90;;;;;;1948033;74;21074;-88
2022/01/10 13:26:57;;;;;;;3.60;0.78;;;7.20;99.90;;;;;;1982806;72;21119;-88
2022/01/10 13:29:50;;;;;;;1.32;0.90;;;7.20;99.90;;;;;;1949983;72;21104;-87
2022/01/10 13:32:44;;;;;;;2.45;0.90;;;7.00;99.90;;;;;;1948067;74;21040;-88
2022/01/10 13:35:37;;;;;;;4.15;1.17;;;6.90;99.90;;;;;;1947976;74;21438;-88
2022/01/10 13:38:30;;;;;;;1.75;0.80;;;7.00;99.90;;;;;;1965705;72;21036;-88
2022/01/10 13:41:22;;;;;;;1.62;0.90;;;7.00;99.90;;;;;;1960545;72;21079;-88
2022/01/10 13:44:13;;;;;;;2.72;1.00;;;7.00;99.90;;;;;;1975792;72;21049;-88
2022/01/10 13:47:06;;;;;;;1.75;0.90;;;7.00;99.90;;;;;;1954595;72;21086;-88
2022/01/10 13:49:59;;;;;;;3.87;1.30;;;7.20;99.90;;;;;;1926628;74;21102;-87
2022/01/10 13:53:08;;;;;;;2.25;0.90;;;7.20;99.90;;;;;;1943645;74;21050;-88
2022/01/10 13:56:09;;;;;;;1.40;0.70;;;7.10;99.90;;;;;;1921832;74;21107;-87
2022/01/10 13:59:04;;;;;;;1.60;0.95;;;7.20;99.90;;;;;;1934899;74;21045;-88
2022/01/10 14:01:57;;;;;;;2.35;0.80;;;7.10;99.90;;;;;;1933745;74;21136;-88
2022/01/10 14:04:48;;;;;;;1.40;0.75;;;7.10;99.90;;;;;;1933657;74;21143;-88
2022/01/10 14:07:39;;;;;;;1.55;0.70;;;7.00;99.90;;;;;;1944854;73;21049;-88
2022/01/10 14:10:31;;;;;;;1.77;0.95;;;7.10;99.90;;;;;;1911022;74;21160;-88
2022/01/10 14:13:22;;;;;;;1.92;1.00;;;7.00;99.90;;;;;;1910832;75;21256;-87
2022/01/10 14:16:14;;;;;;;1.82;0.80;;;7.00;99.90;;;;;;1933750;74;21067;-87
2022/01/10 14:19:07;;;;;;;2.47;1.10;;;7.10;99.90;;;;;;1944640;73;21063;-88
2022/01/10 14:21:59;;;;;;;1.40;0.80;;;7.20;99.90;;;;;;1944468;73;21523;-88
2022/01/10 14:24:52;;;;;;;2.45;0.90;;;7.20;99.90;;;;;;1914703;73;21159;-88
2022/01/10 14:27:44;;;;;;;1.20;0.72;;;7.20;99.90;;;;;;1936170;74;21129;-87
2022/01/10 14:30:36;;;;;;;1.52;0.80;;;7.20;99.90;;;;;;1944681;73;21100;-88
2022/01/10 14:33:28;;;;;;;2.72;0.80;;;7.10;99.90;;;;;;1910842;75;21042;-88
2022/01/10 14:36:19;;;;;;;1.45;0.80;;;7.10;99.90;;;;;;1919549;74;21038;-87
2022/01/10 14:39:11;;;;;;;1.10;0.88;;;7.00;99.90;;;;;;1944714;74;21079;-88
2022/01/10 14:42:02;;;;;;;3.52;1.00;;;7.00;99.90;;;;;;1944965;73;21077;-89
2022/01/10 14:44:53;;;;;;;1.67;0.90;;;7.00;99.90;;;;;;1944768;73;21038;-88
2022/01/10 14:47:45;;;;;;;1.27;0.80;;;7.00;99.90;;;;;;1928923;73;21144;-88
2022/01/10 14:50:37;;;;;;;2.62;1.07;;;7.00;99.90;;;;;;1948530;73;21160;-88
2022/01/10 14:53:29;;;;;;;2.27;1.40;;;7.00;99.90;;;;;;1948790;73;21035;-88
2022/01/10 14:56:20;;;;;;;4.80;2.87;;;6.90;99.90;;;;;;1948928;73;21043;-88
2022/01/10 14:59:11;;;;;;;3.52;1.60;;;6.80;99.90;;;;;;1961715;72;21152;-88
2022/01/10 15:02:03;;;;;;;2.45;1.30;;;6.80;99.90;;;;;;1953754;72;21086;-87
2022/01/10 15:04:56;;;;;;;1.87;1.32;;;6.60;99.90;;;;;;1972491;72;21075;-90
2022/01/10 15:07:47;;;;;;;2.00;1.40;;;6.60;99.90;;;;;;1949054;72;21036;-88
2022/01/10 15:10:50;;;;;;;2.22;1.27;;;6.50;99.90;;;;;;1948671;73;21047;-89
2022/01/10 15:13:43;;;;;;;2.15;1.40;;;6.50;99.90;;;;;;1982642;72;21031;-88
2022/01/10 15:16:38;;;;;;;2.45;1.40;;;6.50;99.90;;;;;;1952477;72;21605;-88
2022/01/10 15:19:30;;;;;;;2.08;1.20;;;6.50;99.90;;;;;;1959979;72;21323;-89
2022/01/10 15:22:21;;;;;;;2.02;1.32;;;6.50;99.90;;;;;;1966641;72;21061;-89
2022/01/10 15:25:12;;;;;;;3.00;1.30;;;6.50;99.90;;;;;;1983810;72;21116;-88
2022/01/10 15:28:04;;;;;;;3.37;1.47;;;6.50;99.90;;;;;;1977078;72;21035;-88
2022/01/10 15:30:56;;;;;;;1.67;1.35;;;6.50;99.90;;;;;;1948836;73;21113;-88
2022/01/10 15:33:47;;;;;;;2.02;1.77;;;6.50;99.90;;;;;;1967742;72;21074;-88
2022/01/10 15:36:39;;;;;;;3.17;1.42;;;6.40;99.90;;;;;;1970230;72;21084;-88
2022/01/10 15:39:35;;;;;;;2.42;1.32;;;6.30;99.90;;;;;;1980587;72;21101;-88
2022/01/10 15:42:26;;;;;;;2.35;1.35;;;6.20;99.90;;;;;;1960174;72;21120;-87
2022/01/10 15:45:17;;;;;;;1.98;1.47;;;6.10;99.90;;;;;;1962404;72;21047;-88
2022/01/10 15:48:11;;;;;;;3.75;1.47;;;6.00;99.90;;;;;;1948741;73;21039;-87
2022/01/10 15:51:03;;;;;;;1.70;1.30;;;6.00;99.90;;;;;;1946907;73;21153;-88
2022/01/10 15:53:54;;;;;;;2.72;1.60;;;6.00;99.90;;;;;;1975410;72;21111;-88
2022/01/10 15:56:53;;;;;;;2.20;1.50;;;5.90;99.90;;;;;;1983202;72;21122;-89
2022/01/10 15:59:45;;;;;;;3.75;1.65;;;5.90;99.90;;;;;;1956826;72;21139;-89
2022/01/10 16:02:37;;;;;;;2.77;1.45;;;5.80;99.90;;;;;;1959261;72;21072;-88
2022/01/10 16:05:28;;;;;;;2.50;1.57;;;5.80;99.90;;;;;;1986430;72;21145;-88
2022/01/10 16:08:20;;;;;;;2.52;1.45;;;5.80;99.90;;;;;;1978576;72;21031;-89
2022/01/10 16:11:12;;;;;;;3.77;1.50;;;5.80;99.90;;;;;;1947136;73;21115;-89
2022/01/10 16:14:04;;;;;;;2.45;1.60;;;5.80;99.90;;;;;;1958742;72;21032;-88
2022/01/10 16:16:58;;;;;;;2.50;1.60;;;5.70;99.90;;;;;;1956783;72;21142;-89
2022/01/10 16:19:50;;;;;;;3.00;1.35;;;5.60;99.90;;;;;;1974053;72;21145;-89
2022/01/10 16:22:41;;;;;;;2.93;1.83;;;5.60;99.90;;;;;;1970492;72;21103;-89
2022/01/10 16:25:36;;;;;;;3.25;1.40;;;5.60;99.90;;;;;;1962070;72;21088;-89
2022/01/10 16:28:29;;;;;;;1.98;1.42;;;5.50;99.90;;;;;;1941825;74;21150;-88
2022/01/10 16:31:23;;;;;;;3.60;1.45;;;5.50;99.90;;;;;;1979424;72;21044;-88
2022/01/10 16:34:14;;;;;;;2.20;1.47;;;5.50;99.90;;;;;;1955394;72;21094;-88
2022/01/10 16:37:06;;;;;;;3.12;1.60;;;5.50;99.90;;;;;;1980121;72;21077;-89
2022/01/10 16:39:59;;;;;;;2.95;1.70;;;5.40;99.90;;;;;;1986525;72;21310;-89
2022/01/10 16:42:51;;;;;;;2.98;1.62;;;5.40;99.90;;;;;;1975088;72;21191;-89
2022/01/10 16:45:44;;;;;;;1.60;1.42;;;5.30;99.90;;;;;;1975971;72;21126;-89
2022/01/10 16:48:38;;;;;;;2.95;1.60;;;5.40;99.90;;;;;;1952167;72;21531;-89
2022/01/10 16:51:36;;;;;;;3.17;1.52;;;5.30;99.90;;;;;;1945108;73;21054;-88
2022/01/10 16:54:28;;;;;;;2.70;1.47;;;5.40;99.90;;;;;;1960207;72;21102;-88
2022/01/10 16:57:19;;;;;;;2.12;1.70;;;5.30;99.90;;;;;;1975835;72;21145;-88
2022/01/10 17:00:12;;;;;;;3.27;1.60;;;5.30;99.90;;;;;;1973124;72;21156;-88
2022/01/10 17:03:05;;;;;;;4.67;1.90;;;5.20;99.90;;;;;;1968829;72;21161;-88
2022/01/10 17:05:59;;;;;;;1.65;1.32;;;5.20;99.90;;;;;;1968333;72;21228;-89
2022/01/10 17:08:50;;;;;;;2.40;1.70;;;5.20;99.90;;;;;;1972754;72;21049;-87
2022/01/10 17:11:44;;;;;;;2.65;1.60;;;5.20;99.90;;;;;;1953771;72;21033;-88
2022/01/10 17:14:36;;;;;;;2.40;1.30;;;5.20;99.90;;;;;;1960054;72;21100;-89
2022/01/10 17:17:28;;;;;;;3.85;1.77;;;5.30;99.90;;;;;;1948433;73;21051;-88
2022/01/10 17:20:20;;;;;;;2.27;1.45;;;5.30;99.90;;;;;;1948325;74;21166;-89
2022/01/10 17:23:12;;;;;;;3.05;1.90;;;5.20;99.90;;;;;;1949404;72;21052;-88
2022/01/10 17:26:03;;;;;;;3.75;1.47;;;5.20;99.90;;;;;;1966694;72;21083;-88
2022/01/10 17:29:04;;;;;;;2.35;1.50;;;5.20;99.90;;;;;;1964852;72;21035;-88
2022/01/10 17:31:56;;;;;;;2.52;1.70;;;5.20;99.90;;;;;;1947960;72;21163;-88